createdAt,value
2023-01-21T00:00:49.907Z,28.27
2023-01-21T00:03:40.903Z,28.25
2023-01-21T00:06:31.027Z,30.60
2023-01-21T00:09:20.984Z,30.27
2023-01-21T00:12:11.204Z,34.55
2023-01-21T00:15:01.131Z,27.70
2023-01-21T00:17:54.655Z,28.30
2023-01-21T00:20:46.138Z,30.30
2023-01-21T00:23:36.667Z,28.92
2023-01-21T00:26:26.505Z,30.85
2023-01-21T00:29:17.657Z,24.48
2023-01-21T00:32:07.825Z,28.92
2023-01-21T00:34:58.283Z,43.33
2023-01-21T00:37:51.607Z,27.77
2023-01-21T00:40:42.860Z,30.80
2023-01-21T00:43:33.140Z,22.83
2023-01-21T00:46:23.561Z,27.92
2023-01-21T00:49:13.803Z,25.70
2023-01-21T00:52:04.074Z,25.90
2023-01-21T00:54:54.136Z,28.50
2023-01-21T00:57:44.044Z,27.38
2023-01-21T01:00:34.673Z,31.67
2023-01-21T01:03:25.022Z,27.00
2023-01-21T01:06:18.015Z,35.78
2023-01-21T01:09:08.635Z,32.35
2023-01-21T01:11:58.761Z,32.45
2023-01-21T01:14:48.873Z,31.15
2023-01-21T01:17:38.711Z,28.83
2023-01-21T01:20:28.828Z,31.77
2023-01-21T01:23:19.092Z,35.05
2023-01-21T01:26:15.007Z,29.20
2023-01-21T01:29:05.383Z,26.55
2023-01-21T01:31:55.513Z,32.13
2023-01-21T01:34:46.191Z,31.95
2023-01-21T01:37:36.152Z,31.20
2023-01-21T01:40:26.020Z,30.05
2023-01-21T01:43:18.955Z,28.63
2023-01-21T01:46:08.818Z,30.00
2023-01-21T01:49:11.503Z,34.58
2023-01-21T01:52:04.763Z,27.13
2023-01-21T01:55:00.316Z,31.60
2023-01-21T01:57:55.151Z,30.77
2023-01-21T02:00:45.812Z,38.75
2023-01-21T02:03:45.949Z,25.70
2023-01-21T02:06:38.288Z,29.00
2023-01-21T02:09:30.021Z,29.48
2023-01-21T02:12:20.940Z,25.92
2023-01-21T02:15:11.393Z,30.17
2023-01-21T02:18:16.370Z,27.90
2023-01-21T02:21:09.202Z,28.40
2023-01-21T02:24:29.776Z,25.65
2023-01-21T02:27:42.505Z,28.67
2023-01-21T02:30:51.110Z,26.73
2023-01-21T02:33:50.477Z,30.63
2023-01-21T02:37:09.584Z,29.35
2023-01-21T02:40:20.478Z,26.48
2023-01-21T02:43:47.066Z,25.80
2023-01-21T02:46:45.824Z,31.13
2023-01-21T02:50:12.297Z,28.70
2023-01-21T02:53:04.555Z,28.00
2023-01-21T02:55:57.642Z,26.08
2023-01-21T02:58:54.136Z,18.30
2023-01-21T03:02:03.285Z,29.33
2023-01-21T03:05:25.362Z,32.33
2023-01-21T03:08:27.386Z,34.47
2023-01-21T03:11:20.951Z,28.95
2023-01-21T03:14:39.464Z,33.35
2023-01-21T03:18:07.018Z,36.88
2023-01-21T03:21:03.708Z,32.42
2023-01-21T03:23:55.735Z,33.65
2023-01-21T03:26:50.623Z,27.50
2023-01-21T03:29:42.316Z,29.35
2023-01-21T03:32:34.839Z,34.70
2023-01-21T03:35:33.247Z,29.55
2023-01-21T03:38:36.522Z,34.85
2023-01-21T03:41:34.040Z,35.00
2023-01-21T03:44:25.349Z,34.60
2023-01-21T03:47:36.508Z,34.10
2023-01-21T03:50:35.428Z,33.42
2023-01-21T03:53:25.841Z,30.52
2023-01-21T03:56:16.208Z,30.67
2023-01-21T03:59:06.175Z,32.10
2023-01-21T04:01:56.623Z,33.55
2023-01-21T04:04:47.693Z,29.55
2023-01-21T04:07:37.815Z,31.80
2023-01-21T04:10:28.357Z,35.60
2023-01-21T04:13:18.584Z,34.88
2023-01-21T04:16:09.242Z,30.70
2023-01-21T04:18:59.247Z,30.65
2023-01-21T04:21:49.165Z,30.58
2023-01-21T04:24:39.561Z,32.08
2023-01-21T04:27:29.488Z,30.70
2023-01-21T04:30:19.853Z,31.15
2023-01-21T04:33:10.210Z,33.22
2023-01-21T04:36:01.016Z,30.35
2023-01-21T04:38:51.504Z,37.47
2023-01-21T04:41:41.343Z,31.30
2023-01-21T04:44:31.354Z,32.22
2023-01-21T04:47:21.191Z,33.28
2023-01-21T04:50:12.445Z,32.58
2023-01-21T04:53:02.787Z,37.28
2023-01-21T04:55:52.714Z,33.08
2023-01-21T04:58:42.845Z,30.63
2023-01-21T05:01:33.214Z,33.85
2023-01-21T05:04:23.025Z,35.28
2023-01-21T05:07:13.234Z,33.05
2023-01-21T05:10:03.578Z,34.70
2023-01-21T05:12:53.701Z,38.88
2023-01-21T05:15:44.205Z,35.40
2023-01-21T05:18:34.361Z,43.83
2023-01-21T05:21:24.245Z,39.92
2023-01-21T05:24:14.531Z,51.92
2023-01-21T05:27:04.543Z,47.20
2023-01-21T05:29:54.598Z,44.35
2023-01-21T05:32:44.736Z,54.25
2023-01-21T05:35:35.057Z,56.20
2023-01-21T05:38:25.529Z,61.75
2023-01-21T05:41:15.568Z,65.68
2023-01-21T05:44:05.848Z,62.97
2023-01-21T05:46:56.025Z,64.68
2023-01-21T05:49:45.828Z,73.22
2023-01-21T05:52:36.242Z,68.03
2023-01-21T05:55:26.538Z,59.17
2023-01-21T05:58:16.479Z,65.68
2023-01-21T06:01:06.387Z,68.15
2023-01-21T06:03:56.912Z,63.85
2023-01-21T06:06:47.337Z,65.38
2023-01-21T06:09:37.722Z,56.63
2023-01-21T06:12:27.513Z,60.55
2023-01-21T06:15:18.116Z,53.00
2023-01-21T06:18:08.462Z,67.28
2023-01-21T06:21:00.270Z,58.60
2023-01-21T06:23:50.355Z,58.13
2023-01-21T06:26:40.263Z,52.72
2023-01-21T06:29:30.608Z,60.13
2023-01-21T06:32:20.785Z,57.72
2023-01-21T06:35:11.052Z,53.90
2023-01-21T06:38:01.259Z,59.38
2023-01-21T06:40:51.393Z,63.95
2023-01-21T06:43:41.611Z,62.45
2023-01-21T06:46:31.620Z,52.72
2023-01-21T06:49:21.863Z,53.30
2023-01-21T06:52:11.771Z,62.25
2023-01-21T06:55:01.779Z,51.30
2023-01-21T06:57:51.706Z,52.97
2023-01-21T07:00:42.237Z,54.88
2023-01-21T07:03:32.531Z,48.22
2023-01-21T07:06:22.732Z,58.67
2023-01-21T07:09:12.564Z,53.58
2023-01-21T07:12:02.448Z,49.47
2023-01-21T07:14:52.702Z,50.28
2023-01-21T07:17:42.927Z,54.33
2023-01-21T07:20:33.676Z,58.10
2023-01-21T07:23:24.332Z,51.65
2023-01-21T07:26:15.052Z,53.15
2023-01-21T07:29:06.566Z,62.67
2023-01-21T07:31:56.753Z,59.97
2023-01-21T07:34:47.157Z,57.80
2023-01-21T07:37:37.724Z,52.83
2023-01-21T07:40:28.071Z,61.53
2023-01-21T07:43:18.142Z,60.88
2023-01-21T07:46:08.864Z,63.78
2023-01-21T07:48:58.925Z,53.78
2023-01-21T07:51:49.189Z,51.78
2023-01-21T07:54:39.536Z,57.83
2023-01-21T07:57:29.610Z,58.80
2023-01-21T08:00:19.938Z,54.63
2023-01-21T08:03:10.445Z,61.97
2023-01-21T08:06:00.736Z,55.40
2023-01-21T08:08:50.864Z,70.85
2023-01-21T08:11:42.842Z,63.67
2023-01-21T08:14:33.739Z,61.40
2023-01-21T08:17:23.801Z,56.63
2023-01-21T08:20:14.227Z,56.00
2023-01-21T08:23:04.248Z,52.42
2023-01-21T08:25:55.025Z,60.38
2023-01-21T08:28:45.504Z,52.97
2023-01-21T08:31:36.229Z,54.60
2023-01-21T08:34:26.739Z,55.97
2023-01-21T08:37:17.516Z,57.25
2023-01-21T08:40:08.603Z,57.38
2023-01-21T08:42:59.813Z,62.33
2023-01-21T08:45:49.928Z,55.28
2023-01-21T08:48:40.275Z,53.65
2023-01-21T08:51:30.315Z,61.00
2023-01-21T08:54:20.275Z,52.08
2023-01-21T08:57:10.282Z,60.78
2023-01-21T09:00:00.578Z,49.10
2023-01-21T09:02:51.915Z,57.88
2023-01-21T09:05:41.908Z,52.83
2023-01-21T09:08:32.615Z,61.05
2023-01-21T09:11:23.100Z,49.75
2023-01-21T09:14:13.084Z,50.85
2023-01-21T09:17:03.021Z,53.38
2023-01-21T09:19:55.333Z,60.30
2023-01-21T09:22:45.904Z,56.40
2023-01-21T09:25:36.269Z,51.40
2023-01-21T09:28:27.100Z,55.97
2023-01-21T09:31:18.795Z,53.95
2023-01-21T09:34:11.966Z,55.95
2023-01-21T09:37:03.034Z,56.38
2023-01-21T09:39:53.465Z,49.13
2023-01-21T09:42:43.662Z,54.90
2023-01-21T09:45:34.150Z,49.25
2023-01-21T09:48:36.535Z,50.53
2023-01-21T09:51:41.485Z,52.42
2023-01-21T09:54:33.748Z,57.50
2023-01-21T09:58:01.749Z,50.58
2023-01-21T10:01:02.904Z,53.08
2023-01-21T10:04:01.164Z,46.30
2023-01-21T10:07:23.590Z,40.22
2023-01-21T10:10:28.905Z,37.78
2023-01-21T10:13:34.450Z,51.88
2023-01-21T10:16:39.707Z,48.22
2023-01-21T10:19:55.693Z,44.85
2023-01-21T10:22:59.190Z,46.28
2023-01-21T10:25:50.691Z,45.60
2023-01-21T10:28:44.653Z,40.92
2023-01-21T10:34:31.920Z,40.55
2023-01-21T10:37:34.959Z,41.05
2023-01-21T10:40:45.600Z,43.28
2023-01-21T10:43:44.359Z,37.67
2023-01-21T10:46:43.709Z,44.28
2023-01-21T10:50:09.172Z,39.53
2023-01-21T10:53:02.141Z,38.15
2023-01-21T10:56:15.141Z,38.93
2023-01-21T10:59:16.522Z,43.17
2023-01-21T11:02:10.071Z,39.25
2023-01-21T11:07:53.754Z,37.85
2023-01-21T11:10:45.489Z,38.90
2023-01-21T11:13:35.697Z,35.05
2023-01-21T11:16:45.828Z,36.88
2023-01-21T11:19:35.854Z,40.35
2023-01-21T11:22:31.213Z,39.55
2023-01-21T11:25:25.884Z,73.05
2023-01-21T11:28:24.896Z,94.55
2023-01-21T11:31:23.249Z,44.63
2023-01-21T11:34:19.006Z,46.45
2023-01-21T11:37:21.948Z,38.10
2023-01-21T11:40:21.560Z,37.50
2023-01-21T11:43:33.324Z,40.67
2023-01-21T11:46:32.063Z,36.03
2023-01-21T11:49:32.170Z,32.53
2023-01-21T11:52:22.363Z,34.50
2023-01-21T11:55:26.535Z,33.63
2023-01-21T11:58:28.547Z,36.67
2023-01-21T12:01:21.396Z,34.83
2023-01-21T12:04:15.383Z,29.75
2023-01-21T12:10:08.690Z,31.55
2023-01-21T12:13:16.599Z,43.83
2023-01-21T12:16:25.598Z,33.95
2023-01-21T12:19:22.146Z,41.05
2023-01-21T12:22:37.208Z,35.25
2023-01-21T12:25:45.232Z,30.60
2023-01-21T12:28:53.710Z,39.75
2023-01-21T12:31:51.921Z,30.25
2023-01-21T12:34:55.699Z,34.75
2023-01-21T12:40:45.597Z,35.00
2023-01-21T12:43:40.578Z,37.80
2023-01-21T12:46:42.066Z,32.88
2023-01-21T12:49:48.584Z,43.50
2023-01-21T12:52:55.408Z,34.78
2023-01-21T12:56:00.381Z,38.42
2023-01-21T12:59:13.227Z,44.25
2023-01-21T13:02:14.819Z,39.63
2023-01-21T13:05:21.532Z,36.60
2023-01-21T13:08:49.476Z,40.28
2023-01-21T13:11:49.323Z,34.45
2023-01-21T13:14:43.106Z,36.28
2023-01-21T13:20:25.598Z,37.40
2023-01-21T13:23:39.283Z,38.53
2023-01-21T13:26:44.050Z,38.17
2023-01-21T13:29:46.563Z,31.88
2023-01-21T13:32:53.272Z,37.00
2023-01-21T13:35:59.166Z,34.58
2023-01-21T13:39:25.101Z,35.15
2023-01-21T13:42:27.546Z,34.35
2023-01-21T13:45:26.395Z,43.40
2023-01-21T13:48:34.505Z,36.45
2023-01-21T13:51:49.841Z,34.28
2023-01-21T13:55:01.719Z,35.88
2023-01-21T13:58:36.093Z,36.10
2023-01-21T14:01:34.945Z,36.13
2023-01-21T14:04:25.288Z,37.25
2023-01-21T14:07:32.984Z,31.95
2023-01-21T14:10:37.273Z,35.10
2023-01-21T14:13:39.586Z,34.50
2023-01-21T14:16:52.841Z,36.42
2023-01-21T14:20:23.098Z,24.35
2023-01-21T14:23:35.104Z,37.85
2023-01-21T14:26:52.754Z,35.05
2023-01-21T14:29:46.913Z,30.23
2023-01-21T14:32:53.663Z,38.40
2023-01-21T14:35:52.087Z,34.88
2023-01-21T14:39:19.092Z,35.65
2023-01-21T14:42:16.355Z,33.17
2023-01-21T14:45:08.232Z,33.10
2023-01-21T14:47:58.460Z,29.25
2023-01-21T14:50:54.345Z,34.00
2023-01-21T14:53:50.077Z,33.53
2023-01-21T14:56:40.647Z,31.05
2023-01-21T14:59:41.743Z,31.38
2023-01-21T15:02:42.809Z,26.50
2023-01-21T15:05:36.781Z,26.33
2023-01-21T15:08:45.495Z,28.80
2023-01-21T15:11:39.359Z,22.23
2023-01-21T15:14:33.679Z,24.10
2023-01-21T15:18:03.997Z,29.17
2023-01-21T15:21:00.721Z,25.70
2023-01-21T15:23:51.045Z,27.33
2023-01-21T15:26:42.329Z,26.30
2023-01-21T15:29:37.776Z,24.38
2023-01-21T15:32:36.870Z,21.95
2023-01-21T15:35:35.641Z,24.95
2023-01-21T15:38:27.102Z,25.95
2023-01-21T15:41:43.998Z,23.30
2023-01-21T15:44:53.159Z,24.17
2023-01-21T15:48:25.324Z,29.00
2023-01-21T15:51:39.081Z,26.95
2023-01-21T15:54:41.195Z,23.40
2023-01-21T15:57:40.409Z,29.20
2023-01-21T16:00:37.469Z,20.20
2023-01-21T16:03:35.252Z,20.38
2023-01-21T16:06:31.208Z,20.55
2023-01-21T16:09:35.135Z,22.73
2023-01-21T16:12:43.732Z,21.95
2023-01-21T16:15:41.882Z,24.58
2023-01-21T16:18:54.300Z,21.52
2023-01-21T16:21:46.887Z,19.02
2023-01-21T16:24:47.429Z,20.00
2023-01-21T16:27:38.090Z,19.02
2023-01-21T16:30:31.749Z,22.58
2023-01-21T16:33:22.291Z,23.40
2023-01-21T16:36:15.831Z,25.13
2023-01-21T16:42:03.757Z,20.52
2023-01-21T16:44:54.137Z,23.60
2023-01-21T16:47:46.525Z,21.23
2023-01-21T16:50:36.438Z,22.25
2023-01-21T16:53:26.778Z,20.38
2023-01-21T16:56:26.349Z,20.55
2023-01-21T16:59:27.260Z,25.30
2023-01-21T17:02:20.444Z,23.67
2023-01-21T17:05:13.992Z,25.48
2023-01-21T17:08:11.222Z,29.33
2023-01-21T17:11:07.319Z,25.40
2023-01-21T17:14:00.371Z,28.17
2023-01-21T17:16:54.135Z,23.75
2023-01-21T17:19:44.267Z,30.10
2023-01-21T17:22:35.390Z,25.77
2023-01-21T17:25:26.613Z,24.45
2023-01-21T17:28:28.439Z,23.42
2023-01-21T17:31:27.521Z,25.00
2023-01-21T17:34:21.340Z,29.50
2023-01-21T17:38:05.989Z,24.50
2023-01-21T17:41:02.258Z,25.77
2023-01-21T17:43:55.601Z,27.02
2023-01-21T17:46:48.554Z,25.63
2023-01-21T17:49:38.858Z,27.13
2023-01-21T17:52:29.606Z,25.35
2023-01-21T17:55:19.806Z,24.42
2023-01-21T17:58:31.557Z,25.38
2023-01-21T18:01:22.223Z,24.13
2023-01-21T18:04:12.632Z,31.08
2023-01-21T18:07:14.496Z,32.38
2023-01-21T18:10:20.669Z,27.20
2023-01-21T18:13:15.137Z,31.88
2023-01-21T18:16:05.555Z,29.77
2023-01-21T18:18:56.028Z,32.28
2023-01-21T18:21:45.981Z,34.58
2023-01-21T18:24:37.281Z,34.55
2023-01-21T18:27:27.584Z,37.90
2023-01-21T18:30:20.547Z,40.15
2023-01-21T18:33:12.399Z,35.63
2023-01-21T18:36:02.704Z,39.05
2023-01-21T18:38:52.957Z,40.63
2023-01-21T18:41:43.583Z,40.40
2023-01-21T18:44:33.802Z,44.17
2023-01-21T18:47:23.671Z,53.00
2023-01-21T18:50:21.290Z,43.72
2023-01-21T18:53:12.789Z,55.35
2023-01-21T18:56:06.213Z,42.80
2023-01-21T18:58:56.593Z,48.70
2023-01-21T19:01:46.642Z,45.08
2023-01-21T19:04:37.033Z,43.03
2023-01-21T19:07:28.108Z,37.65
2023-01-21T19:10:20.517Z,33.80
2023-01-21T19:13:11.970Z,40.35
2023-01-21T19:16:02.496Z,39.95
2023-01-21T19:18:52.484Z,43.40
2023-01-21T19:21:42.465Z,37.53
2023-01-21T19:24:32.439Z,38.25
2023-01-21T19:27:31.686Z,35.67
2023-01-21T19:30:29.446Z,41.80
2023-01-21T19:33:19.673Z,44.83
2023-01-21T19:36:17.226Z,50.25
2023-01-21T19:39:15.840Z,40.40
2023-01-21T19:42:08.669Z,41.65
2023-01-21T19:44:59.212Z,43.30
2023-01-21T19:47:51.079Z,37.95
2023-01-21T19:50:41.750Z,36.15
2023-01-21T19:53:32.151Z,47.75
2023-01-21T19:56:24.101Z,43.42
2023-01-21T19:59:15.581Z,44.63
2023-01-21T20:02:05.477Z,45.83
2023-01-21T20:04:55.979Z,36.55
2023-01-21T20:07:48.873Z,40.03
2023-01-21T20:10:38.663Z,40.50
2023-01-21T20:13:32.122Z,41.13
2023-01-21T20:19:16.816Z,38.55
2023-01-21T20:22:07.771Z,33.03
2023-01-21T20:24:57.864Z,38.95
2023-01-21T20:27:54.893Z,38.95
2023-01-21T20:30:46.135Z,33.55
2023-01-21T20:33:36.981Z,35.78
2023-01-21T20:36:27.034Z,38.13
2023-01-21T20:39:16.939Z,35.33
2023-01-21T20:42:09.288Z,31.50
2023-01-21T20:44:59.162Z,37.63
2023-01-21T20:47:52.681Z,28.42
2023-01-21T20:50:42.760Z,33.20
2023-01-21T20:53:32.908Z,39.65
2023-01-21T20:56:31.556Z,38.50
2023-01-21T20:59:21.799Z,39.53
2023-01-21T21:02:12.508Z,34.17
2023-01-21T21:05:02.979Z,34.45
2023-01-21T21:07:53.528Z,36.10
2023-01-21T21:10:44.286Z,39.78
2023-01-21T21:13:34.852Z,33.63
2023-01-21T21:16:28.709Z,29.73
2023-01-21T21:19:18.811Z,33.83
2023-01-21T21:22:09.255Z,34.15
2023-01-21T21:24:59.317Z,31.95
2023-01-21T21:27:49.733Z,39.95
2023-01-21T21:30:39.782Z,42.13
2023-01-21T21:33:30.174Z,36.75
2023-01-21T21:36:23.092Z,39.17
2023-01-21T21:39:19.076Z,27.75
2023-01-21T21:42:30.495Z,37.42
2023-01-21T21:45:20.626Z,38.38
2023-01-21T21:48:39.001Z,38.92
2023-01-21T21:51:31.648Z,38.65
2023-01-21T21:54:22.728Z,39.77
2023-01-21T21:57:14.098Z,36.75
2023-01-21T22:00:05.011Z,32.33
2023-01-21T22:02:59.834Z,36.83
2023-01-21T22:05:51.578Z,38.00
2023-01-21T22:08:42.720Z,38.63
2023-01-21T22:11:33.547Z,43.03
2023-01-21T22:14:23.553Z,37.35
2023-01-21T22:17:13.390Z,42.75
2023-01-21T22:20:03.292Z,40.20
2023-01-21T22:22:53.560Z,44.65
2023-01-21T22:25:43.738Z,39.85
2023-01-21T22:28:37.069Z,39.45
2023-01-21T22:31:30.125Z,43.70
2023-01-21T22:34:20.728Z,51.47
2023-01-21T22:37:10.924Z,47.45
2023-01-21T22:40:00.873Z,45.90
2023-01-21T22:42:51.049Z,43.55
2023-01-21T22:45:47.276Z,50.10
2023-01-21T22:48:37.908Z,48.50
2023-01-21T22:51:28.303Z,44.85
2023-01-21T22:54:18.898Z,50.03
2023-01-21T22:57:09.226Z,47.83
2023-01-21T23:00:01.028Z,48.90
2023-01-21T23:02:52.669Z,43.95
2023-01-21T23:05:43.135Z,45.70
2023-01-21T23:08:33.902Z,42.30
2023-01-21T23:11:24.037Z,51.10
2023-01-21T23:14:14.164Z,45.17
2023-01-21T23:17:04.575Z,53.55
2023-01-21T23:19:54.657Z,47.80
2023-01-21T23:22:45.414Z,49.42
2023-01-21T23:25:40.549Z,47.50
2023-01-21T23:28:30.738Z,48.88
2023-01-21T23:31:21.325Z,46.35
2023-01-21T23:34:15.037Z,43.65
2023-01-21T23:37:04.864Z,47.45
2023-01-21T23:39:54.731Z,47.97
2023-01-21T23:42:49.227Z,46.17
2023-01-21T23:45:39.690Z,48.50
2023-01-21T23:48:29.765Z,47.22
2023-01-21T23:51:20.303Z,51.95
2023-01-21T23:54:12.176Z,45.75
2023-01-21T23:57:02.122Z,46.35
2023-01-21T23:59:52.073Z,44.30
